Kriti Ruby — SVAT5 — position and weather

sailwx.info

Track history (hours):
 
Tides and Currents Weather Stations Pressure Air Temp Water Temp Dewpoint Dewpoint Depression Visibility Wind Speed Wind Dir Waves Ship Positions

Kriti Ruby

Last reported at 2014-Jul-12 08:09 UTC. Time now 2014-Jul-26 09:13 UTC.
Position N 28°60' W 094°26'.
Warning: this ship's position is 14 days out of date.

Length 183 m; draft 10 m.

Type: Ship (hazmat cat C). MMSI: 240941000.

Date/timePositionNaut miles runAvg speedWind from/ knotsBaromVisibWave heightAir tempDewpointWater temp
2014-Jul-12 08:09N 28°60' W 094°26'32 0.6
2014-Jul-10 06:33N 29°24' W 094°49'1111.5
2014-Jul-10 05:33N 29°34' W 094°55'1110.4
2014-Jul-10 04:33N 29°43' W 095°01'6 6.5
2014-Jul-10 03:33N 29°44' W 095°09'4 4.0
2014-Jul-10 02:33N 29°44' W 095°13'0 0.0
2014-Jul-10 01:31N 29°44' W 095°13'0 0.0
2014-Jul-10 00:31N 29°44' W 095°13'0 0.0
2014-Jul-09 23:31N 29°44' W 095°13'0 0.0
2014-Jul-09 22:31N 29°44' W 095°13'0 0.0
2014-Jul-09 21:31N 29°44' W 095°13'0 0.0
2014-Jul-09 20:31N 29°44' W 095°13'0 0.0
2014-Jul-09 19:31N 29°44' W 095°13'0 0.0
2014-Jul-09 18:31N 29°44' W 095°13'0 0.0
2014-Jul-09 17:31N 29°44' W 095°13'0 0.0
2014-Jul-09 16:31N 29°44' W 095°13'0 0.0
2014-Jul-09 15:31N 29°44' W 095°13'0 0.0
2014-Jul-09 14:31N 29°44' W 095°13'0 0.0
2014-Jul-09 13:31N 29°44' W 095°13'0 0.0
2014-Jul-09 12:31N 29°44' W 095°13'0 0.0
2014-Jul-09 11:31N 29°44' W 095°13'0 0.0
2014-Jul-09 10:31N 29°44' W 095°13'0 0.0
2014-Jul-09 09:31N 29°44' W 095°13'0 0.0
2014-Jul-09 08:31N 29°44' W 095°13'0 0.0
2014-Jul-09 07:31N 29°44' W 095°13'0 0.0
2014-Jul-09 06:31N 29°44' W 095°13'0 0.0
2014-Jul-09 05:31N 29°44' W 095°13'0 0.0
2014-Jul-09 04:31N 29°44' W 095°13'0 0.0
2014-Jul-09 03:31N 29°44' W 095°13'0 0.0
2014-Jul-09 02:31N 29°44' W 095°13'0 0.0
2014-Jul-09 01:31N 29°44' W 095°13'0 0.0
2014-Jul-09 00:31N 29°44' W 095°13'0 0.0
2014-Jul-08 23:31N 29°44' W 095°13'0 0.0
2014-Jul-08 22:31N 29°44' W 095°13'0 0.0
2014-Jul-08 21:31N 29°44' W 095°13'0 0.0
2014-Jul-08 20:31N 29°44' W 095°13'0 0.0
2014-Jul-08 19:31N 29°44' W 095°13'0 0.0
2014-Jul-08 18:31N 29°44' W 095°13'0 0.0
2014-Jul-08 17:31N 29°44' W 095°13'0 0.0
2014-Jul-08 16:31N 29°44' W 095°13'0 0.0
2014-Jul-08 15:31N 29°44' W 095°13'0 0.0
2014-Jul-08 14:33N 29°44' W 095°13'0 0.0
2014-Jul-08 13:33N 29°44' W 095°13'0 0.0
2014-Jul-08 12:33N 29°44' W 095°13'0 0.0
2014-Jul-08 11:33N 29°44' W 095°13'0 0.0
2014-Jul-08 10:33N 29°44' W 095°13'0 0.0
2014-Jul-08 09:33N 29°44' W 095°13'0 0.0
2014-Jul-08 08:33N 29°44' W 095°13'0 0.0
2014-Jul-08 07:33N 29°44' W 095°13'0 0.0
2014-Jul-08 06:33N 29°44' W 095°13'0 0.0
2014-Jul-08 05:33N 29°44' W 095°13'0 0.0
2014-Jul-08 04:33N 29°44' W 095°13'0 0.0
2014-Jul-08 03:33N 29°44' W 095°13'0 0.0
2014-Jul-08 02:33N 29°44' W 095°13'0 0.0
2014-Jul-08 01:33N 29°44' W 095°13'0 0.0
2014-Jul-08 00:33N 29°44' W 095°13'0 0.0
2014-Jul-07 23:33N 29°44' W 095°13'0 0.0
2014-Jul-07 22:33N 29°44' W 095°13'0 0.0
2014-Jul-07 21:33N 29°44' W 095°13'0 0.0
2014-Jul-07 20:33N 29°44' W 095°13'1 0.9
2014-Jul-07 19:33N 29°43' W 095°14'5 5.3
2014-Jul-07 18:33N 29°44' W 095°08'6 6.1
2014-Jul-07 17:33N 29°43' W 095°01'10 9.5
2014-Jul-07 16:33N 29°35' W 094°56'1212.3
2014-Jul-07 15:33N 29°24' W 094°49'  
2014-Jul-04 13:15N 29°15' W 094°28'0 0.0
2014-Jul-04 12:33N 29°15' W 094°28'0 0.1
2014-Jul-04 11:31N 29°15' W 094°28'8 4.1
2014-Jul-04 09:33N 29°10' W 094°21'  
Track history (hours):
 
Tides and Currents Weather Stations Pressure Air Temp Water Temp Dewpoint Dewpoint Depression Visibility Wind Speed Wind Dir Waves Ship Positions

Kriti Ruby

Last reported at 2014-Jul-12 08:09 UTC. Time now 2014-Jul-26 09:13 UTC.
Position N 28°60' W 094°26'.
Warning: this ship's position is 14 days out of date.

Length 183 m; draft 10 m.

Type: Ship (hazmat cat C). MMSI: 240941000.

Date/timePositionNaut miles runAvg speedWind from/ knotsBaromVisibWave heightAir tempDewpointWater temp
2014-Jul-12 08:09N 28°60' W 094°26'32 0.6
2014-Jul-10 06:33N 29°24' W 094°49'1111.5
2014-Jul-10 05:33N 29°34' W 094°55'1110.4
2014-Jul-10 04:33N 29°43' W 095°01'6 6.5
2014-Jul-10 03:33N 29°44' W 095°09'4 4.0
2014-Jul-10 02:33N 29°44' W 095°13'0 0.0
2014-Jul-10 01:31N 29°44' W 095°13'0 0.0
2014-Jul-10 00:31N 29°44' W 095°13'0 0.0
2014-Jul-09 23:31N 29°44' W 095°13'0 0.0
2014-Jul-09 22:31N 29°44' W 095°13'0 0.0
2014-Jul-09 21:31N 29°44' W 095°13'0 0.0
2014-Jul-09 20:31N 29°44' W 095°13'0 0.0
2014-Jul-09 19:31N 29°44' W 095°13'0 0.0
2014-Jul-09 18:31N 29°44' W 095°13'0 0.0
2014-Jul-09 17:31N 29°44' W 095°13'0 0.0
2014-Jul-09 16:31N 29°44' W 095°13'0 0.0
2014-Jul-09 15:31N 29°44' W 095°13'0 0.0
2014-Jul-09 14:31N 29°44' W 095°13'0 0.0
2014-Jul-09 13:31N 29°44' W 095°13'0 0.0
2014-Jul-09 12:31N 29°44' W 095°13'0 0.0
2014-Jul-09 11:31N 29°44' W 095°13'0 0.0
2014-Jul-09 10:31N 29°44' W 095°13'0 0.0
2014-Jul-09 09:31N 29°44' W 095°13'0 0.0
2014-Jul-09 08:31N 29°44' W 095°13'0 0.0
2014-Jul-09 07:31N 29°44' W 095°13'0 0.0
2014-Jul-09 06:31N 29°44' W 095°13'0 0.0
2014-Jul-09 05:31N 29°44' W 095°13'0 0.0
2014-Jul-09 04:31N 29°44' W 095°13'0 0.0
2014-Jul-09 03:31N 29°44' W 095°13'0 0.0
2014-Jul-09 02:31N 29°44' W 095°13'0 0.0
2014-Jul-09 01:31N 29°44' W 095°13'0 0.0
2014-Jul-09 00:31N 29°44' W 095°13'0 0.0
2014-Jul-08 23:31N 29°44' W 095°13'0 0.0
2014-Jul-08 22:31N 29°44' W 095°13'0 0.0
2014-Jul-08 21:31N 29°44' W 095°13'0 0.0
2014-Jul-08 20:31N 29°44' W 095°13'0 0.0
2014-Jul-08 19:31N 29°44' W 095°13'0 0.0
2014-Jul-08 18:31N 29°44' W 095°13'0 0.0
2014-Jul-08 17:31N 29°44' W 095°13'0 0.0
2014-Jul-08 16:31N 29°44' W 095°13'0 0.0
2014-Jul-08 15:31N 29°44' W 095°13'0 0.0
2014-Jul-08 14:33N 29°44' W 095°13'0 0.0
2014-Jul-08 13:33N 29°44' W 095°13'0 0.0
2014-Jul-08 12:33N 29°44' W 095°13'0 0.0
2014-Jul-08 11:33N 29°44' W 095°13'0 0.0
2014-Jul-08 10:33N 29°44' W 095°13'0 0.0
2014-Jul-08 09:33N 29°44' W 095°13'0 0.0
2014-Jul-08 08:33N 29°44' W 095°13'0 0.0
2014-Jul-08 07:33N 29°44' W 095°13'0 0.0
2014-Jul-08 06:33N 29°44' W 095°13'0 0.0
2014-Jul-08 05:33N 29°44' W 095°13'0 0.0
2014-Jul-08 04:33N 29°44' W 095°13'0 0.0
2014-Jul-08 03:33N 29°44' W 095°13'0 0.0
2014-Jul-08 02:33N 29°44' W 095°13'0 0.0
2014-Jul-08 01:33N 29°44' W 095°13'0 0.0
2014-Jul-08 00:33N 29°44' W 095°13'0 0.0
2014-Jul-07 23:33N 29°44' W 095°13'0 0.0
2014-Jul-07 22:33N 29°44' W 095°13'0 0.0
2014-Jul-07 21:33N 29°44' W 095°13'0 0.0
2014-Jul-07 20:33N 29°44' W 095°13'1 0.9
2014-Jul-07 19:33N 29°43' W 095°14'5 5.3
2014-Jul-07 18:33N 29°44' W 095°08'6 6.1
2014-Jul-07 17:33N 29°43' W 095°01'10 9.5
2014-Jul-07 16:33N 29°35' W 094°56'1212.3
2014-Jul-07 15:33N 29°24' W 094°49'  
2014-Jul-04 13:15N 29°15' W 094°28'0 0.0
2014-Jul-04 12:33N 29°15' W 094°28'0 0.1
2014-Jul-04 11:31N 29°15' W 094°28'8 4.1
2014-Jul-04 09:33N 29°10' W 094°21'  

Dump ship's entire track history